Time;durP1;ratioP1;P1;durP2;ratioP2;P2;SDS_P1;SDS_P2;PMS_P1;PMS_P2;Temp;Humidity;BMP_temperature;BMP_pressure;BME280_temperature;BME280_humidity;BME280_pressure;Samples;Min_cycle;Max_cycle;Signal;HPM_P1;HPM_P2
2023/12/27 00:00:24;;;;;;;11.35;3.90;;;;;;;;;;4979806;28;20291;-63
2023/12/27 00:02:49;;;;;;;7.55;3.85;;;;;;;;;;4988024;28;20633;-63
2023/12/27 00:05:15;;;;;;;9.38;3.90;;;;;;;;;;4991283;28;20429;-63
2023/12/27 00:07:40;;;;;;;7.82;3.97;;;;;;;;;;4986413;28;20036;-63
2023/12/27 00:10:06;;;;;;;12.80;4.95;;;;;;;;;;4973119;28;20024;-63
2023/12/27 00:12:31;;;;;;;9.95;4.20;;;;;;;;;;4994918;28;20033;-64
2023/12/27 00:14:56;;;;;;;8.33;4.23;;;;;;;;;;4997577;28;20022;-63
2023/12/27 00:17:21;;;;;;;9.77;4.00;;;;;;;;;;5002376;28;20280;-63
2023/12/27 00:19:46;;;;;;;9.25;4.32;;;;;;;;;;4992374;28;20026;-63
2023/12/27 00:22:14;;;;;;;7.83;3.80;;;;;;;;;;4999803;28;20076;-63
2023/12/27 00:24:39;;;;;;;8.38;3.92;;;;;;;;;;4995236;28;20368;-63
2023/12/27 00:27:04;;;;;;;7.23;4.00;;;;;;;;;;4988299;28;20040;-64
2023/12/27 00:29:30;;;;;;;8.60;3.53;;;;;;;;;;5012674;28;20284;-64
2023/12/27 00:31:55;;;;;;;13.65;4.32;;;;;;;;;;5004179;28;20036;-64
2023/12/27 00:34:21;;;;;;;9.07;3.58;;;;;;;;;;4998651;28;20049;-63
2023/12/27 00:36:46;;;;;;;7.40;4.18;;;;;;;;;;4994370;28;20034;-64
2023/12/27 00:39:11;;;;;;;8.48;4.03;;;;;;;;;;5011335;28;20448;-64
2023/12/27 00:41:36;;;;;;;11.25;3.60;;;;;;;;;;4999248;28;20759;-64
2023/12/27 00:44:02;;;;;;;17.30;5.13;;;;;;;;;;5001455;28;20377;-64
2023/12/27 00:46:27;;;;;;;10.93;4.68;;;;;;;;;;4997665;28;20714;-64
2023/12/27 00:48:52;;;;;;;12.27;5.38;;;;;;;;;;4999056;28;20026;-64
2023/12/27 00:51:19;;;;;;;14.68;5.72;;;;;;;;;;5007206;28;20042;-64
2023/12/27 00:53:44;;;;;;;12.32;5.85;;;;;;;;;;5003494;28;20028;-64
2023/12/27 00:56:09;;;;;;;10.27;5.95;;;;;;;;;;5002134;28;20428;-64
2023/12/27 00:58:35;;;;;;;15.00;6.88;;;;;;;;;;5013647;28;20046;-65
2023/12/27 01:01:00;;;;;;;13.38;6.35;;;;;;;;;;5003890;28;20030;-64
2023/12/27 01:03:25;;;;;;;9.47;5.80;;;;;;;;;;4998533;28;20157;-64
2023/12/27 01:05:50;;;;;;;11.23;5.90;;;;;;;;;;5009328;28;20322;-64
2023/12/27 01:08:15;;;;;;;12.52;6.00;;;;;;;;;;4999651;28;20273;-64
2023/12/27 01:10:41;;;;;;;16.65;7.38;;;;;;;;;;4997392;28;20026;-64
2023/12/27 01:13:06;;;;;;;15.00;6.82;;;;;;;;;;5005967;28;20858;-64
2023/12/27 01:15:32;;;;;;;13.32;7.15;;;;;;;;;;5005482;28;20564;-64
2023/12/27 01:17:57;;;;;;;13.38;7.00;;;;;;;;;;4992452;28;20029;-64
2023/12/27 01:20:22;;;;;;;13.60;6.45;;;;;;;;;;4988058;28;20141;-64
2023/12/27 01:22:47;;;;;;;13.55;6.85;;;;;;;;;;4985411;28;20084;-64
2023/12/27 01:25:13;;;;;;;14.27;7.83;;;;;;;;;;5001194;28;20030;-64
2023/12/27 01:27:38;;;;;;;12.57;7.18;;;;;;;;;;4994496;28;20285;-65
2023/12/27 01:30:03;;;;;;;10.13;6.50;;;;;;;;;;4992074;28;20137;-65
2023/12/27 01:32:29;;;;;;;14.65;7.18;;;;;;;;;;5003273;28;20120;-64
2023/12/27 01:34:54;;;;;;;17.08;7.60;;;;;;;;;;5004642;28;20065;-64
2023/12/27 01:37:19;;;;;;;16.35;7.80;;;;;;;;;;5000536;28;20026;-64
2023/12/27 01:39:44;;;;;;;19.98;8.65;;;;;;;;;;5004403;28;20128;-64
2023/12/27 01:42:10;;;;;;;17.80;8.77;;;;;;;;;;4995184;28;20044;-64
2023/12/27 01:44:35;;;;;;;17.15;8.95;;;;;;;;;;4996840;28;20034;-64
2023/12/27 01:47:00;;;;;;;17.60;8.53;;;;;;;;;;4992097;28;20135;-64
2023/12/27 01:49:25;;;;;;;20.30;8.60;;;;;;;;;;4991020;28;20292;-64
2023/12/27 01:51:51;;;;;;;11.85;8.00;;;;;;;;;;4994427;28;20485;-64
2023/12/27 01:54:16;;;;;;;13.80;8.25;;;;;;;;;;4998746;28;20021;-64
2023/12/27 01:56:44;;;;;;;18.35;8.18;;;;;;;;;;4998387;28;20109;-64
2023/12/27 01:59:10;;;;;;;14.98;8.50;;;;;;;;;;4987195;28;20045;-63
2023/12/27 02:01:36;;;;;;;18.17;8.45;;;;;;;;;;4991745;28;20034;-63
2023/12/27 02:04:01;;;;;;;13.30;8.88;;;;;;;;;;4997299;28;20065;-64
2023/12/27 02:06:26;;;;;;;18.13;8.70;;;;;;;;;;5007085;28;20319;-64
2023/12/27 02:08:52;;;;;;;16.75;7.97;;;;;;;;;;4996756;28;20123;-64
2023/12/27 02:11:17;;;;;;;16.95;9.18;;;;;;;;;;5006484;28;20496;-64
2023/12/27 02:13:42;;;;;;;14.77;9.50;;;;;;;;;;4987395;28;20897;-64
2023/12/27 02:16:08;;;;;;;17.20;9.48;;;;;;;;;;4985918;28;21207;-63
2023/12/27 02:18:33;;;;;;;19.42;9.65;;;;;;;;;;4990686;28;20037;-64
2023/12/27 02:20:59;;;;;;;21.48;9.63;;;;;;;;;;5026413;28;20029;-64
2023/12/27 02:23:25;;;;;;;21.38;10.75;;;;;;;;;;4989836;28;20048;-64
2023/12/27 02:25:51;;;;;;;24.25;9.63;;;;;;;;;;4991513;28;20034;-65
2023/12/27 02:28:16;;;;;;;18.15;10.05;;;;;;;;;;4989158;28;20132;-65
2023/12/27 02:30:41;;;;;;;21.25;9.80;;;;;;;;;;5010431;28;20792;-65
2023/12/27 02:33:07;;;;;;;22.27;10.15;;;;;;;;;;5017380;28;20033;-65
2023/12/27 02:35:32;;;;;;;18.13;10.02;;;;;;;;;;4991799;28;20525;-65
2023/12/27 02:37:58;;;;;;;18.60;9.63;;;;;;;;;;4998822;28;20529;-65
2023/12/27 02:40:23;;;;;;;14.25;8.32;;;;;;;;;;4994681;28;20037;-65
2023/12/27 02:42:48;;;;;;;15.57;9.23;;;;;;;;;;4994844;28;20049;-66
2023/12/27 02:45:13;;;;;;;28.70;10.57;;;;;;;;;;5002697;28;20029;-65
2023/12/27 02:47:39;;;;;;;16.73;8.68;;;;;;;;;;4983304;28;20283;-65
2023/12/27 02:50:04;;;;;;;16.23;9.90;;;;;;;;;;4993519;28;20030;-65
2023/12/27 02:52:29;;;;;;;20.10;8.27;;;;;;;;;;4992968;28;20751;-66
2023/12/27 02:54:55;;;;;;;21.00;7.80;;;;;;;;;;4991472;28;20040;-66
2023/12/27 02:57:20;;;;;;;24.23;8.75;;;;;;;;;;4993537;28;20026;-66
2023/12/27 02:59:46;;;;;;;13.90;7.70;;;;;;;;;;4997764;28;20029;-66
2023/12/27 03:02:11;;;;;;;17.70;7.47;;;;;;;;;;5013845;28;20451;-66
2023/12/27 03:04:36;;;;;;;15.65;7.32;;;;;;;;;;5006332;28;20273;-66
2023/12/27 03:07:02;;;;;;;20.73;7.03;;;;;;;;;;4993295;28;20543;-66
2023/12/27 03:09:27;;;;;;;11.85;7.38;;;;;;;;;;5002705;28;20929;-65
2023/12/27 03:11:53;;;;;;;25.40;7.35;;;;;;;;;;4997574;28;20026;-67
2023/12/27 03:14:18;;;;;;;10.02;5.70;;;;;;;;;;5012238;28;20030;-66
2023/12/27 03:16:44;;;;;;;18.52;7.05;;;;;;;;;;4991894;28;20037;-66
2023/12/27 03:19:09;;;;;;;10.38;5.75;;;;;;;;;;4993436;28;20032;-66
2023/12/27 03:21:34;;;;;;;9.70;5.50;;;;;;;;;;4996705;28;20030;-66
2023/12/27 03:23:59;;;;;;;18.73;6.25;;;;;;;;;;4991918;28;20022;-66
2023/12/27 03:26:24;;;;;;;13.87;6.07;;;;;;;;;;5006003;28;20030;-65
2023/12/27 03:28:50;;;;;;;8.45;5.38;;;;;;;;;;5023283;28;20978;-65
2023/12/27 03:31:15;;;;;;;14.15;6.35;;;;;;;;;;5009898;28;20035;-66
2023/12/27 03:33:41;;;;;;;14.00;5.85;;;;;;;;;;5000455;28;20122;-65
2023/12/27 03:36:06;;;;;;;20.80;7.10;;;;;;;;;;4994176;28;20036;-66
2023/12/27 03:38:31;;;;;;;12.50;6.05;;;;;;;;;;4991717;28;20296;-66
2023/12/27 03:40:57;;;;;;;10.60;5.45;;;;;;;;;;5002389;28;20025;-66
2023/12/27 03:43:22;;;;;;;11.23;6.18;;;;;;;;;;5010169;28;20080;-66
2023/12/27 03:45:50;;;;;;;11.20;6.15;;;;;;;;;;5017540;28;20028;-66
2023/12/27 03:48:15;;;;;;;15.88;6.40;;;;;;;;;;5014293;28;20026;-66
2023/12/27 03:50:41;;;;;;;14.02;5.30;;;;;;;;;;5009459;28;20115;-66
2023/12/27 03:53:06;;;;;;;10.95;5.43;;;;;;;;;;5021837;28;20026;-66
2023/12/27 03:55:31;;;;;;;12.45;5.97;;;;;;;;;;5005802;28;20037;-66
2023/12/27 03:57:56;;;;;;;12.53;5.27;;;;;;;;;;5001330;28;20018;-66
2023/12/27 04:00:22;;;;;;;13.87;6.03;;;;;;;;;;5020746;28;20280;-66
2023/12/27 04:02:47;;;;;;;12.63;5.18;;;;;;;;;;5012588;28;20342;-66
2023/12/27 04:05:13;;;;;;;13.63;6.50;;;;;;;;;;4995486;28;20037;-66
2023/12/27 04:07:38;;;;;;;12.25;5.45;;;;;;;;;;4988711;28;20037;-66
2023/12/27 04:10:04;;;;;;;16.20;5.75;;;;;;;;;;4990069;28;20101;-66
2023/12/27 04:12:29;;;;;;;16.00;5.72;;;;;;;;;;5011142;28;20109;-66
2023/12/27 04:14:55;;;;;;;12.32;6.28;;;;;;;;;;4995997;28;20040;-66
2023/12/27 04:17:20;;;;;;;12.95;5.97;;;;;;;;;;4995784;28;20140;-65
2023/12/27 04:19:45;;;;;;;18.00;5.28;;;;;;;;;;5012460;28;20061;-66
2023/12/27 04:22:10;;;;;;;6.87;4.63;;;;;;;;;;5008533;28;20022;-66
2023/12/27 04:24:35;;;;;;;13.90;5.88;;;;;;;;;;4993670;28;20323;-66
2023/12/27 04:27:01;;;;;;;13.30;4.83;;;;;;;;;;4993176;28;20076;-66
2023/12/27 04:29:26;;;;;;;10.23;5.63;;;;;;;;;;4997992;28;20399;-66
2023/12/27 04:31:51;;;;;;;7.22;4.55;;;;;;;;;;4987818;28;20029;-66
2023/12/27 04:34:16;;;;;;;9.90;5.35;;;;;;;;;;5000607;28;20087;-66
2023/12/27 04:36:42;;;;;;;9.30;5.07;;;;;;;;;;4985578;28;20527;-65
2023/12/27 04:39:07;;;;;;;14.77;5.72;;;;;;;;;;5003964;28;20091;-65
2023/12/27 04:41:32;;;;;;;8.70;4.68;;;;;;;;;;5004907;28;20084;-65
2023/12/27 04:43:58;;;;;;;16.17;6.20;;;;;;;;;;4999778;28;20025;-65
2023/12/27 04:46:23;;;;;;;6.35;4.00;;;;;;;;;;4992588;28;20272;-65
2023/12/27 04:48:48;;;;;;;7.70;4.53;;;;;;;;;;5009226;28;20500;-65
2023/12/27 04:51:13;;;;;;;13.13;5.30;;;;;;;;;;5005696;28;20797;-65
2023/12/27 04:53:38;;;;;;;12.05;5.20;;;;;;;;;;5006223;28;20757;-65
2023/12/27 04:56:04;;;;;;;12.87;4.70;;;;;;;;;;5005774;28;20030;-64
2023/12/27 04:58:29;;;;;;;8.25;4.63;;;;;;;;;;5015974;28;20331;-65
2023/12/27 05:00:54;;;;;;;18.52;5.57;;;;;;;;;;4999058;28;20026;-66
2023/12/27 05:03:20;;;;;;;13.15;4.40;;;;;;;;;;4989570;28;20030;-65
2023/12/27 05:05:45;;;;;;;10.93;5.30;;;;;;;;;;4994493;28;20899;-65
2023/12/27 05:08:10;;;;;;;11.63;5.50;;;;;;;;;;5005344;28;20886;-65
2023/12/27 05:10:36;;;;;;;12.82;4.97;;;;;;;;;;4986644;28;20969;-64
2023/12/27 05:13:01;;;;;;;11.50;4.78;;;;;;;;;;5003538;28;20786;-64
2023/12/27 05:15:26;;;;;;;11.68;4.97;;;;;;;;;;5006853;28;20025;-64
2023/12/27 05:17:52;;;;;;;11.43;5.20;;;;;;;;;;5001660;28;20018;-64
2023/12/27 05:20:17;;;;;;;12.57;4.82;;;;;;;;;;4998840;28;20177;-64
2023/12/27 05:22:44;;;;;;;11.15;4.88;;;;;;;;;;5014742;28;20025;-64
2023/12/27 05:25:09;;;;;;;11.93;5.65;;;;;;;;;;5004563;28;20075;-65
2023/12/27 05:27:35;;;;;;;9.32;5.53;;;;;;;;;;4994783;28;20837;-65
2023/12/27 05:30:01;;;;;;;10.60;5.57;;;;;;;;;;5002115;28;20026;-64
2023/12/27 05:32:26;;;;;;;11.05;6.15;;;;;;;;;;4997655;28;20030;-64
2023/12/27 05:34:52;;;;;;;11.63;5.65;;;;;;;;;;5017025;28;20037;-64
2023/12/27 05:37:18;;;;;;;11.93;5.28;;;;;;;;;;4998109;28;20030;-65
2023/12/27 05:39:43;;;;;;;10.25;5.80;;;;;;;;;;4987229;28;20497;-65
2023/12/27 05:42:09;;;;;;;11.18;5.45;;;;;;;;;;4995575;28;20902;-66
2023/12/27 05:44:34;;;;;;;9.73;5.97;;;;;;;;;;5010377;28;20104;-66
2023/12/27 05:47:00;;;;;;;11.52;6.10;;;;;;;;;;5012776;28;20481;-66
2023/12/27 05:49:26;;;;;;;15.07;6.35;;;;;;;;;;5017970;28;20030;-67
2023/12/27 05:51:51;;;;;;;12.07;6.47;;;;;;;;;;5013443;28;20061;-66
2023/12/27 05:54:18;;;;;;;11.85;7.07;;;;;;;;;;5013392;28;20025;-67
2023/12/27 05:56:43;;;;;;;15.00;6.55;;;;;;;;;;5013111;28;20026;-66
2023/12/27 05:59:08;;;;;;;14.07;6.63;;;;;;;;;;5012806;28;20037;-66
2023/12/27 06:01:33;;;;;;;11.18;7.07;;;;;;;;;;5014198;28;20026;-66
2023/12/27 06:03:59;;;;;;;12.33;6.60;;;;;;;;;;4994954;28;20030;-66
2023/12/27 06:06:24;;;;;;;12.18;7.20;;;;;;;;;;4989002;28;20295;-66
2023/12/27 06:08:49;;;;;;;11.97;6.67;;;;;;;;;;4987251;28;20991;-66
2023/12/27 06:11:14;;;;;;;13.52;6.65;;;;;;;;;;5012921;28;20853;-66
2023/12/27 06:13:40;;;;;;;11.93;6.80;;;;;;;;;;4996364;28;20762;-67
2023/12/27 06:16:05;;;;;;;13.48;7.68;;;;;;;;;;5003867;28;20024;-67
2023/12/27 06:18:30;;;;;;;11.65;7.30;;;;;;;;;;5001814;28;20022;-66
2023/12/27 06:20:56;;;;;;;15.90;7.03;;;;;;;;;;4991707;28;20103;-66
2023/12/27 06:23:21;;;;;;;13.13;6.75;;;;;;;;;;4989181;28;20380;-68
2023/12/27 06:25:46;;;;;;;17.27;7.97;;;;;;;;;;4990244;28;20065;-66
2023/12/27 06:28:11;;;;;;;12.20;7.17;;;;;;;;;;4996324;28;20050;-65
2023/12/27 06:30:37;;;;;;;13.33;8.20;;;;;;;;;;4995103;28;21190;-65
2023/12/27 06:33:02;;;;;;;13.27;7.20;;;;;;;;;;4998854;28;20798;-65
2023/12/27 06:35:27;;;;;;;13.02;7.53;;;;;;;;;;4993178;28;20776;-66
2023/12/27 06:37:52;;;;;;;8.80;6.40;;;;;;;;;;4989404;28;20041;-65
2023/12/27 06:40:18;;;;;;;11.80;7.47;;;;;;;;;;4982474;28;20312;-65
2023/12/27 06:42:43;;;;;;;12.83;7.03;;;;;;;;;;5004641;28;20360;-65
2023/12/27 06:45:08;;;;;;;11.10;7.30;;;;;;;;;;5009584;28;20945;-63
2023/12/27 06:47:33;;;;;;;15.90;6.95;;;;;;;;;;4999508;28;20830;-65
2023/12/27 06:49:59;;;;;;;11.23;6.83;;;;;;;;;;5005299;28;20032;-65
2023/12/27 06:52:24;;;;;;;13.77;7.00;;;;;;;;;;5011145;28;20292;-65
2023/12/27 06:54:49;;;;;;;14.73;7.63;;;;;;;;;;5011336;28;20269;-65
2023/12/27 06:57:14;;;;;;;13.27;6.90;;;;;;;;;;5019865;28;20032;-65
2023/12/27 06:59:39;;;;;;;14.00;6.93;;;;;;;;;;5009299;28;20523;-65
2023/12/27 07:02:07;;;;;;;17.93;6.80;;;;;;;;;;5006185;28;20758;-65
2023/12/27 07:04:32;;;;;;;10.48;5.80;;;;;;;;;;5015101;28;20276;-65
2023/12/27 07:06:58;;;;;;;6.93;5.13;;;;;;;;;;5012158;28;20025;-65
2023/12/27 07:09:23;;;;;;;9.85;5.55;;;;;;;;;;5009379;28;20284;-65
2023/12/27 07:11:48;;;;;;;9.82;4.88;;;;;;;;;;4999346;28;20044;-66
2023/12/27 07:14:13;;;;;;;9.33;6.10;;;;;;;;;;5019065;28;20032;-67
2023/12/27 07:16:39;;;;;;;8.07;4.88;;;;;;;;;;4989900;28;20709;-67
2023/12/27 07:19:04;;;;;;;6.63;4.70;;;;;;;;;;4980007;28;20092;-66
2023/12/27 07:21:30;;;;;;;7.13;4.03;;;;;;;;;;4982589;28;20032;-67
2023/12/27 07:23:55;;;;;;;8.85;4.35;;;;;;;;;;4984112;28;20065;-66
2023/12/27 07:26:20;;;;;;;7.85;4.30;;;;;;;;;;4989306;28;20034;-66
2023/12/27 07:28:45;;;;;;;6.97;4.13;;;;;;;;;;4983979;28;20030;-64
2023/12/27 07:31:11;;;;;;;6.95;3.53;;;;;;;;;;4977424;28;20395;-64
2023/12/27 07:33:39;;;;;;;7.00;3.70;;;;;;;;;;4983654;28;20022;-66
2023/12/27 07:36:04;;;;;;;5.95;3.35;;;;;;;;;;4976657;28;20288;-64
2023/12/27 07:38:29;;;;;;;7.32;3.42;;;;;;;;;;4988998;28;20030;-64
2023/12/27 07:40:56;;;;;;;5.57;2.80;;;;;;;;;;4978492;28;20022;-64
2023/12/27 07:43:22;;;;;;;5.32;2.90;;;;;;;;;;4985586;28;20284;-66
2023/12/27 07:45:48;;;;;;;4.85;2.45;;;;;;;;;;4989557;28;20036;-63
2023/12/27 07:48:13;;;;;;;6.10;2.42;;;;;;;;;;4983434;28;20018;-65
2023/12/27 07:50:39;;;;;;;3.63;1.80;;;;;;;;;;4981577;28;20075;-65
2023/12/27 07:53:05;;;;;;;4.10;1.80;;;;;;;;;;4989434;28;20178;-65
2023/12/27 07:55:31;;;;;;;2.80;1.50;;;;;;;;;;4979814;28;20058;-65
2023/12/27 07:57:56;;;;;;;2.70;1.50;;;;;;;;;;4980726;28;20018;-66
2023/12/27 08:00:21;;;;;;;4.60;1.80;;;;;;;;;;4982832;28;20060;-65
2023/12/27 08:02:47;;;;;;;2.50;1.20;;;;;;;;;;4976326;28;20028;-65
2023/12/27 08:05:12;;;;;;;2.42;1.25;;;;;;;;;;4979721;28;20014;-65
2023/12/27 08:07:38;;;;;;;4.70;1.33;;;;;;;;;;4984263;28;21031;-66
2023/12/27 08:10:04;;;;;;;2.92;1.08;;;;;;;;;;4981466;28;20274;-65
2023/12/27 08:12:30;;;;;;;2.75;0.90;;;;;;;;;;4990060;28;20037;-64
2023/12/27 08:14:56;;;;;;;4.82;1.10;;;;;;;;;;4978721;28;20953;-65
2023/12/27 08:17:22;;;;;;;1.65;0.73;;;;;;;;;;4986717;28;20047;-64
2023/12/27 08:19:47;;;;;;;3.00;0.90;;;;;;;;;;4981455;28;20025;-70
2023/12/27 08:22:12;;;;;;;2.45;1.15;;;;;;;;;;4983440;28;20091;-65
2023/12/27 08:24:38;;;;;;;3.00;0.70;;;;;;;;;;4990632;28;20026;-65
2023/12/27 08:27:03;;;;;;;1.45;0.60;;;;;;;;;;4986235;28;20985;-65
2023/12/27 08:29:28;;;;;;;1.77;0.70;;;;;;;;;;4980113;28;20849;-65
2023/12/27 08:31:53;;;;;;;4.40;0.80;;;;;;;;;;4989803;28;20029;-65
2023/12/27 08:34:19;;;;;;;2.50;0.75;;;;;;;;;;4983077;28;20033;-65
2023/12/27 08:36:45;;;;;;;2.67;0.68;;;;;;;;;;4988216;28;20025;-65
2023/12/27 08:39:10;;;;;;;1.60;0.68;;;;;;;;;;4973755;28;20133;-65
2023/12/27 08:41:36;;;;;;;1.17;0.45;;;;;;;;;;4983754;28;20133;-65
2023/12/27 08:44:01;;;;;;;1.73;0.70;;;;;;;;;;4991782;28;20876;-65
2023/12/27 08:46:26;;;;;;;2.17;0.70;;;;;;;;;;4990989;28;20856;-66
2023/12/27 08:48:51;;;;;;;2.77;1.13;;;;;;;;;;4979965;28;20043;-65
2023/12/27 08:51:17;;;;;;;1.20;0.47;;;;;;;;;;4991984;28;20286;-65
2023/12/27 08:53:42;;;;;;;1.20;0.50;;;;;;;;;;5006733;28;20356;-65
2023/12/27 08:56:07;;;;;;;1.53;0.60;;;;;;;;;;5012582;28;20375;-64
2023/12/27 08:58:32;;;;;;;2.13;1.05;;;;;;;;;;5021031;28;20371;-64
2023/12/27 09:01:01;;;;;;;1.80;1.00;;;;;;;;;;5012029;28;20035;-65
2023/12/27 09:03:27;;;;;;;2.65;0.80;;;;;;;;;;5011918;28;20534;-65
2023/12/27 09:05:52;;;;;;;3.47;1.10;;;;;;;;;;5010432;28;20025;-65
2023/12/27 09:08:17;;;;;;;3.17;0.80;;;;;;;;;;5020055;28;20029;-65
2023/12/27 09:10:42;;;;;;;2.53;0.80;;;;;;;;;;4992009;28;20285;-65
2023/12/27 09:13:09;;;;;;;2.20;0.85;;;;;;;;;;5026519;28;20072;-64
2023/12/27 09:15:34;;;;;;;2.47;0.60;;;;;;;;;;5017699;28;20049;-65
2023/12/27 09:17:59;;;;;;;6.33;1.33;;;;;;;;;;5010462;28;20021;-64
2023/12/27 09:20:24;;;;;;;1.70;0.67;;;;;;;;;;5013428;28;20283;-65
2023/12/27 09:22:50;;;;;;;2.90;1.20;;;;;;;;;;5011013;28;20272;-65
2023/12/27 09:25:15;;;;;;;1.75;0.55;;;;;;;;;;5009683;28;20343;-65
2023/12/27 09:27:40;;;;;;;1.20;0.50;;;;;;;;;;5010661;28;20359;-65
2023/12/27 09:30:06;;;;;;;3.80;0.52;;;;;;;;;;5012951;28;20071;-65
2023/12/27 09:32:32;;;;;;;1.80;0.85;;;;;;;;;;5015224;28;20510;-65
2023/12/27 09:34:57;;;;;;;2.17;0.90;;;;;;;;;;5010439;28;20017;-64
2023/12/27 09:37:22;;;;;;;1.57;0.50;;;;;;;;;;5010472;28;20468;-63
2023/12/27 09:39:47;;;;;;;2.42;0.80;;;;;;;;;;5011005;28;20764;-63
2023/12/27 09:42:13;;;;;;;2.63;0.80;;;;;;;;;;5011318;28;20025;-64
2023/12/27 09:44:40;;;;;;;1.20;0.52;;;;;;;;;;5018563;28;20375;-63
2023/12/27 09:47:06;;;;;;;3.30;0.75;;;;;;;;;;5011307;28;20033;-64
2023/12/27 09:49:32;;;;;;;1.95;0.70;;;;;;;;;;5011278;28;20156;-64
2023/12/27 09:51:58;;;;;;;2.05;0.75;;;;;;;;;;5012732;28;20026;-63
2023/12/27 09:54:23;;;;;;;2.35;0.68;;;;;;;;;;5011385;28;20033;-63
2023/12/27 09:56:49;;;;;;;2.13;0.70;;;;;;;;;;5014598;28;20114;-63
2023/12/27 09:59:19;;;;;;;1.50;0.55;;;;;;;;;;5029876;28;20021;-63
2023/12/27 10:01:46;;;;;;;1.67;0.68;;;;;;;;;;5013201;28;20021;-62
2023/12/27 10:04:18;;;;;;;2.60;0.82;;;;;;;;;;5135893;27;20200;-65
2023/12/27 10:06:44;;;;;;;2.58;1.23;;;;;;;;;;5114127;28;20136;-64
2023/12/27 10:09:10;;;;;;;3.63;0.85;;;;;;;;;;5082602;28;20047;-64
2023/12/27 10:11:36;;;;;;;3.55;1.10;;;;;;;;;;5080678;27;20024;-64
2023/12/27 10:14:04;;;;;;;2.70;1.05;;;;;;;;;;5078969;28;20025;-64
2023/12/27 10:16:29;;;;;;;3.17;0.65;;;;;;;;;;5080877;28;20544;-64
2023/12/27 10:18:55;;;;;;;3.00;0.80;;;;;;;;;;5079716;28;20019;-64
2023/12/27 10:21:20;;;;;;;3.50;1.00;;;;;;;;;;5102870;28;20028;-64
2023/12/27 10:23:45;;;;;;;1.83;0.68;;;;;;;;;;5125732;28;20456;-64
2023/12/27 10:26:11;;;;;;;3.13;1.25;;;;;;;;;;5126256;28;20027;-64
2023/12/27 10:28:36;;;;;;;2.60;0.80;;;;;;;;;;5126681;28;20062;-64
2023/12/27 10:31:05;;;;;;;3.97;1.05;;;;;;;;;;5126444;28;20023;-64
2023/12/27 10:33:40;;;;;;;3.83;0.70;;;;;;;;;;5127196;28;20031;-64
2023/12/27 10:36:05;;;;;;;5.60;1.13;;;;;;;;;;5124323;27;20495;-64
2023/12/27 10:38:31;;;;;;;3.70;1.00;;;;;;;;;;5126786;28;20016;-64
2023/12/27 10:40:56;;;;;;;2.07;0.57;;;;;;;;;;5125970;28;20439;-64
2023/12/27 10:43:24;;;;;;;7.32;1.13;;;;;;;;;;5126788;28;20764;-64
2023/12/27 10:45:50;;;;;;;2.60;1.02;;;;;;;;;;5126454;28;20016;-64
2023/12/27 10:48:15;;;;;;;2.25;0.80;;;;;;;;;;5125896;28;20470;-64
2023/12/27 10:50:41;;;;;;;4.72;1.25;;;;;;;;;;5126737;28;20027;-64
2023/12/27 10:53:06;;;;;;;3.67;1.13;;;;;;;;;;5124485;27;20030;-64
2023/12/27 10:55:32;;;;;;;3.45;0.65;;;;;;;;;;5126185;28;20395;-64
2023/12/27 10:57:59;;;;;;;3.13;0.95;;;;;;;;;;5125775;28;20046;-64
2023/12/27 11:00:24;;;;;;;3.72;1.02;;;;;;;;;;5123402;28;20111;-64
2023/12/27 11:02:50;;;;;;;3.72;0.90;;;;;;;;;;5126190;28;20509;-64
2023/12/27 11:05:15;;;;;;;3.20;1.35;;;;;;;;;;5125418;28;20028;-64
2023/12/27 11:07:42;;;;;;;3.50;1.20;;;;;;;;;;5124462;28;20485;-64
2023/12/27 11:10:09;;;;;;;2.22;0.90;;;;;;;;;;5110027;28;20057;-64
2023/12/27 11:12:35;;;;;;;5.22;1.38;;;;;;;;;;5114691;28;20027;-64
2023/12/27 11:15:04;;;;;;;3.05;1.20;;;;;;;;;;5116187;28;20431;-64
2023/12/27 11:17:30;;;;;;;2.70;1.25;;;;;;;;;;5111900;28;20031;-64
2023/12/27 11:19:56;;;;;;;3.58;0.82;;;;;;;;;;5111277;28;20046;-64
2023/12/27 11:22:21;;;;;;;4.18;1.35;;;;;;;;;;5111652;28;20024;-64
2023/12/27 11:24:47;;;;;;;3.25;1.38;;;;;;;;;;5111584;28;20020;-64
2023/12/27 11:27:16;;;;;;;2.75;0.88;;;;;;;;;;5112009;28;20041;-64
2023/12/27 11:29:42;;;;;;;3.55;1.02;;;;;;;;;;5104518;28;20106;-64
2023/12/27 11:32:07;;;;;;;2.65;1.23;;;;;;;;;;5111710;28;20107;-64
2023/12/27 11:34:32;;;;;;;2.50;1.17;;;;;;;;;;5110563;28;20425;-64
2023/12/27 11:36:57;;;;;;;7.43;1.38;;;;;;;;;;5100595;28;20019;-64
2023/12/27 11:39:27;;;;;;;5.05;1.42;;;;;;;;;;5112437;28;20047;-64
2023/12/27 11:41:52;;;;;;;5.45;1.75;;;;;;;;;;5112105;28;20373;-64
2023/12/27 11:44:17;;;;;;;3.83;1.30;;;;;;;;;;5111347;28;20068;-64
2023/12/27 11:46:43;;;;;;;5.35;1.33;;;;;;;;;;5111675;28;20649;-64
2023/12/27 11:49:08;;;;;;;3.83;1.27;;;;;;;;;;5112117;28;20106;-64
2023/12/27 11:51:34;;;;;;;5.25;1.42;;;;;;;;;;5110147;28;20130;-64
2023/12/27 11:54:01;;;;;;;6.00;1.13;;;;;;;;;;5111246;28;20430;-64
2023/12/27 11:56:27;;;;;;;5.78;1.70;;;;;;;;;;5099690;28;20069;-64
2023/12/27 11:58:53;;;;;;;4.97;1.45;;;;;;;;;;5109473;28;20107;-64
2023/12/27 12:01:31;;;;;;;4.55;1.67;;;;;;;;;;5098865;28;20465;-64
2023/12/27 12:04:15;;;;;;;4.50;1.50;;;;;;;;;;5110159;28;20031;-64
2023/12/27 12:06:43;;;;;;;5.32;1.48;;;;;;;;;;5095445;28;20876;-64
2023/12/27 12:09:09;;;;;;;4.68;1.23;;;;;;;;;;5110521;28;20753;-64
2023/12/27 12:11:34;;;;;;;4.68;1.50;;;;;;;;;;5111632;28;20015;-64
2023/12/27 12:14:00;;;;;;;4.50;1.70;;;;;;;;;;5097542;28;20496;-64
2023/12/27 12:16:31;;;;;;;8.32;1.30;;;;;;;;;;5098019;28;20088;-64
2023/12/27 12:18:57;;;;;;;3.95;1.10;;;;;;;;;;5061831;28;20024;-64
2023/12/27 12:21:22;;;;;;;6.22;1.92;;;;;;;;;;5066423;28;20036;-64
2023/12/27 12:23:47;;;;;;;10.05;1.17;;;;;;;;;;5068873;28;20051;-64
2023/12/27 12:26:12;;;;;;;4.65;1.50;;;;;;;;;;5067703;28;20023;-64
2023/12/27 12:28:38;;;;;;;3.38;1.23;;;;;;;;;;5054981;28;20023;-64
2023/12/27 12:31:03;;;;;;;3.60;1.43;;;;;;;;;;5111572;28;20038;-64
2023/12/27 12:33:28;;;;;;;3.13;1.30;;;;;;;;;;5111691;28;20269;-64
2023/12/27 12:35:55;;;;;;;6.50;1.40;;;;;;;;;;5111363;28;20020;-64
2023/12/27 12:38:21;;;;;;;3.47;1.38;;;;;;;;;;5110774;28;20276;-64
2023/12/27 12:40:47;;;;;;;4.43;1.35;;;;;;;;;;5110575;28;20485;-64
2023/12/27 12:43:14;;;;;;;3.08;1.13;;;;;;;;;;5110787;28;20043;-64
2023/12/27 12:45:39;;;;;;;7.43;1.63;;;;;;;;;;5111077;28;20024;-64
2023/12/27 12:48:04;;;;;;;5.28;1.30;;;;;;;;;;5109927;28;20027;-64
2023/12/27 12:50:29;;;;;;;3.33;1.10;;;;;;;;;;5108885;28;20092;-64
2023/12/27 12:52:55;;;;;;;7.65;1.30;;;;;;;;;;5110279;28;20077;-64
2023/12/27 12:55:22;;;;;;;3.83;1.17;;;;;;;;;;5092485;28;20047;-64
2023/12/27 12:57:48;;;;;;;3.60;1.05;;;;;;;;;;5088593;28;20929;-65
2023/12/27 13:00:21;;;;;;;4.43;1.08;;;;;;;;;;5070078;28;20118;-66
2023/12/27 13:02:47;;;;;;;7.25;1.42;;;;;;;;;;5109793;28;20474;-66
2023/12/27 13:05:12;;;;;;;4.40;1.45;;;;;;;;;;5109948;28;20055;-65
2023/12/27 13:07:38;;;;;;;3.30;1.27;;;;;;;;;;5110303;28;20040;-62
2023/12/27 13:10:04;;;;;;;3.25;1.35;;;;;;;;;;5104828;28;20024;-62
2023/12/27 13:12:33;;;;;;;4.32;1.50;;;;;;;;;;5102521;28;20023;-62
2023/12/27 13:14:58;;;;;;;5.05;1.75;;;;;;;;;;5109957;28;20035;-63
2023/12/27 13:17:23;;;;;;;3.65;1.17;;;;;;;;;;5105379;28;20031;-63
2023/12/27 13:19:49;;;;;;;4.88;1.08;;;;;;;;;;5104226;28;20031;-64
2023/12/27 13:22:14;;;;;;;6.78;1.35;;;;;;;;;;5101994;28;20144;-63
2023/12/27 13:24:39;;;;;;;4.20;1.40;;;;;;;;;;5100913;28;20028;-63
2023/12/27 13:27:07;;;;;;;9.20;1.67;;;;;;;;;;5106417;28;20015;-63
2023/12/27 13:29:32;;;;;;;2.60;1.20;;;;;;;;;;5102288;28;20273;-63
2023/12/27 13:31:57;;;;;;;5.83;1.40;;;;;;;;;;5102114;28;20077;-64
2023/12/27 13:34:23;;;;;;;4.00;1.43;;;;;;;;;;5097029;28;20288;-64
2023/12/27 13:36:48;;;;;;;4.97;1.60;;;;;;;;;;5108090;28;20253;-63
2023/12/27 13:39:14;;;;;;;3.40;1.20;;;;;;;;;;5103893;28;20270;-64
2023/12/27 13:41:39;;;;;;;5.25;1.10;;;;;;;;;;5103353;28;20047;-64
2023/12/27 13:44:04;;;;;;;7.38;1.65;;;;;;;;;;5101134;28;20040;-64
2023/12/27 13:46:30;;;;;;;4.73;1.13;;;;;;;;;;5100514;28;20831;-64
2023/12/27 13:48:55;;;;;;;3.78;1.40;;;;;;;;;;5095799;28;20872;-64
2023/12/27 13:51:21;;;;;;;3.15;1.15;;;;;;;;;;5102300;28;20046;-64
2023/12/27 13:53:46;;;;;;;4.32;1.25;;;;;;;;;;5096906;28;20027;-64
2023/12/27 13:56:11;;;;;;;4.72;1.52;;;;;;;;;;5104971;28;20016;-64
2023/12/27 13:58:37;;;;;;;6.10;1.38;;;;;;;;;;5106845;28;20069;-67
2023/12/27 14:01:04;;;;;;;6.60;1.50;;;;;;;;;;5106835;28;20550;-64
2023/12/27 14:03:30;;;;;;;5.28;1.42;;;;;;;;;;5078644;28;20039;-64
2023/12/27 14:05:55;;;;;;;3.83;1.40;;;;;;;;;;5104355;28;20030;-64
2023/12/27 14:08:21;;;;;;;3.60;1.00;;;;;;;;;;5109348;28;20015;-64
2023/12/27 14:10:46;;;;;;;2.93;0.97;;;;;;;;;;5108526;28;20037;-63
2023/12/27 14:13:11;;;;;;;5.60;1.50;;;;;;;;;;5109354;28;20274;-63
2023/12/27 14:15:36;;;;;;;2.13;1.07;;;;;;;;;;5108481;28;20273;-63
2023/12/27 14:18:04;;;;;;;2.72;1.10;;;;;;;;;;5107340;28;20281;-63
2023/12/27 14:20:31;;;;;;;2.88;1.05;;;;;;;;;;5109251;28;20428;-62
2023/12/27 14:22:56;;;;;;;2.63;1.13;;;;;;;;;;5109367;28;20032;-62
2023/12/27 14:25:21;;;;;;;7.15;1.25;;;;;;;;;;5107705;28;20028;-63
2023/12/27 14:27:46;;;;;;;4.63;1.20;;;;;;;;;;5109370;28;20466;-62